createdAt,value
2023-02-11T00:02:29.179Z,101335.28
2023-02-11T00:07:33.274Z,101299.30
2023-02-11T00:12:37.038Z,101277.63
2023-02-11T00:17:49.525Z,101262.30
2023-02-11T00:22:53.047Z,101261.61
2023-02-11T00:27:56.480Z,101239.17
2023-02-11T00:32:59.797Z,101225.55
2023-02-11T00:38:04.366Z,101223.73
2023-02-11T00:43:07.736Z,101226.45
2023-02-11T00:48:11.034Z,101220.12
2023-02-11T00:53:14.369Z,101205.48
2023-02-11T00:58:19.633Z,101193.18
2023-02-11T01:03:23.905Z,101171.77
2023-02-11T01:08:27.269Z,101164.58
2023-02-11T01:13:33.258Z,101141.08
2023-02-11T01:18:43.166Z,101112.40
2023-02-11T01:23:46.461Z,101079.07
2023-02-11T01:28:50.477Z,101080.39
2023-02-11T01:33:53.752Z,101055.75
2023-02-11T01:38:57.092Z,101050.34
2023-02-11T01:44:24.579Z,101051.69
2023-02-11T01:49:33.809Z,101039.16
2023-02-11T01:55:01.588Z,101040.02
2023-02-11T02:00:21.818Z,101030.48
2023-02-11T02:05:39.484Z,101037.33
2023-02-11T02:10:46.695Z,101035.95
2023-02-11T02:15:57.021Z,101005.52
2023-02-11T02:21:18.557Z,100996.30
2023-02-11T02:26:59.430Z,100996.16
2023-02-11T02:32:44.650Z,100987.07
2023-02-11T02:37:52.026Z,100966.30
2023-02-11T02:42:55.629Z,100956.69
2023-02-11T02:47:59.661Z,100934.02
2023-02-11T02:53:32.052Z,100916.14
2023-02-11T02:58:47.115Z,100903.39
2023-02-11T03:04:06.072Z,100911.64
2023-02-11T03:09:18.201Z,100903.07
2023-02-11T03:14:24.004Z,100887.13
2023-02-11T03:19:50.825Z,100870.20
2023-02-11T03:24:56.293Z,100869.15
2023-02-11T03:30:18.058Z,100853.02
2023-02-11T03:35:48.562Z,100842.27
2023-02-11T03:40:56.127Z,100830.95
2023-02-11T03:46:00.958Z,100824.77
2023-02-11T03:51:09.622Z,100820.46
2023-02-11T03:56:21.663Z,100820.48
2023-02-11T04:01:25.084Z,100823.55
2023-02-11T04:06:28.335Z,100815.88
2023-02-11T04:11:31.748Z,100803.73
2023-02-11T04:16:35.070Z,100797.74
2023-02-11T04:21:38.428Z,100783.83
2023-02-11T04:26:41.709Z,100770.11
2023-02-11T04:31:45.317Z,100744.94
2023-02-11T04:36:49.073Z,100744.73
2023-02-11T04:41:52.408Z,100737.41
2023-02-11T04:46:55.707Z,100731.08
2023-02-11T04:51:59.047Z,100725.00
2023-02-11T04:57:02.352Z,100723.48
2023-02-11T05:02:05.714Z,100711.94
2023-02-11T05:07:11.939Z,100702.09
2023-02-11T05:12:15.741Z,100696.79
2023-02-11T05:17:19.143Z,100684.77
2023-02-11T05:22:22.862Z,100678.88
2023-02-11T05:27:26.276Z,100667.92
2023-02-11T05:32:32.659Z,100666.29
2023-02-11T05:37:37.204Z,100658.70
2023-02-11T05:42:40.897Z,100656.17
2023-02-11T05:47:44.169Z,100641.73
2023-02-11T05:52:47.639Z,100630.83
2023-02-11T05:57:51.609Z,100631.64
2023-02-11T06:02:55.065Z,100620.65
2023-02-11T06:08:00.716Z,100616.52
2023-02-11T06:13:04.768Z,100614.57
2023-02-11T06:18:08.629Z,100599.61
2023-02-11T06:23:12.111Z,100599.33
2023-02-11T06:28:16.948Z,100587.74
2023-02-11T06:33:20.294Z,100591.70
2023-02-11T06:38:24.329Z,100587.70
2023-02-11T06:43:33.756Z,100586.14
2023-02-11T06:48:43.072Z,100580.15
2023-02-11T06:53:50.375Z,100587.16
2023-02-11T06:58:57.525Z,100581.60
2023-02-11T07:04:01.664Z,100560.42
2023-02-11T07:09:05.832Z,100550.94
2023-02-11T07:14:09.145Z,100553.14
2023-02-11T07:19:14.455Z,100548.01
2023-02-11T07:24:17.846Z,100538.41
2023-02-11T07:29:21.910Z,100537.65
2023-02-11T07:34:25.872Z,100542.34
2023-02-11T07:39:30.583Z,100554.38
2023-02-11T07:44:34.128Z,100562.28
2023-02-11T07:49:37.556Z,100566.08
2023-02-11T07:54:40.935Z,100546.09
2023-02-11T07:59:44.243Z,100545.71
2023-02-11T08:04:47.603Z,100536.52
2023-02-11T08:09:55.306Z,100522.39
2023-02-11T08:14:58.555Z,100513.42
2023-02-11T08:20:16.577Z,100511.51
2023-02-11T08:25:20.181Z,100509.61
2023-02-11T08:30:28.865Z,100521.04
2023-02-11T08:35:34.960Z,100513.06
2023-02-11T08:40:39.343Z,100512.56
2023-02-11T08:45:44.801Z,100514.47
2023-02-11T08:50:48.742Z,100503.66
2023-02-11T08:55:54.618Z,100489.54
2023-02-11T09:01:00.168Z,100490.11
2023-02-11T09:06:07.498Z,100492.15
2023-02-11T09:11:11.661Z,100480.95
2023-02-11T09:16:22.067Z,100473.80
2023-02-11T09:21:27.021Z,100468.39
2023-02-11T09:26:33.118Z,100443.13
2023-02-11T09:31:36.630Z,100439.02
2023-02-11T09:36:41.428Z,100438.13
2023-02-11T09:42:07.058Z,100454.03
2023-02-11T09:47:33.595Z,100468.29
2023-02-11T09:52:56.348Z,100470.77
2023-02-11T09:58:05.456Z,100460.91
2023-02-11T10:03:46.312Z,100461.26
2023-02-11T10:09:13.172Z,100464.41
2023-02-11T10:14:47.665Z,100450.55
2023-02-11T10:20:20.401Z,100442.41
2023-02-11T10:25:46.158Z,100424.29
2023-02-11T10:30:55.822Z,100426.09
2023-02-11T10:36:00.711Z,100422.90
2023-02-11T10:41:08.539Z,100403.54
2023-02-11T10:46:30.134Z,100406.14
2023-02-11T10:51:37.983Z,100401.20
2023-02-11T10:57:00.305Z,100400.55
2023-02-11T11:02:36.220Z,100392.30
2023-02-11T11:07:57.642Z,100397.86
2023-02-11T11:13:01.335Z,100382.24
2023-02-11T11:18:24.344Z,100397.00
2023-02-11T11:23:32.490Z,100389.06
2023-02-11T11:28:58.270Z,100402.80
2023-02-11T11:34:28.800Z,100402.70
2023-02-11T11:39:36.792Z,100413.65
2023-02-11T11:44:43.404Z,100425.84
2023-02-11T11:49:47.298Z,100437.35
2023-02-11T11:55:05.442Z,100437.14
2023-02-11T12:00:22.092Z,100440.75
2023-02-11T12:05:54.846Z,100445.68
2023-02-11T12:11:11.353Z,100444.95
2023-02-11T12:16:35.001Z,100447.76
2023-02-11T12:21:46.401Z,100448.42
2023-02-11T12:27:00.466Z,100448.85
2023-02-11T12:32:22.118Z,100457.09
2023-02-11T12:37:39.637Z,100456.15
2023-02-11T12:43:16.318Z,100455.26
2023-02-11T12:48:59.156Z,100457.35
2023-02-11T12:54:42.520Z,100453.13
2023-02-11T13:00:06.027Z,100454.11
2023-02-11T13:05:32.949Z,100461.73
2023-02-11T13:10:49.777Z,100475.77
2023-02-11T13:16:20.912Z,100484.35
2023-02-11T13:21:50.661Z,100484.86
2023-02-11T13:27:32.540Z,100492.92
2023-02-11T13:32:54.712Z,100498.06
2023-02-11T13:38:01.288Z,100506.03
2023-02-11T13:43:19.920Z,100513.11
2023-02-11T13:48:26.795Z,100515.38
2023-02-11T13:53:40.796Z,100518.52
2023-02-11T13:58:48.720Z,100525.14
2023-02-11T14:04:41.621Z,100535.52
2023-02-11T14:09:44.889Z,100544.71
2023-02-11T14:15:19.995Z,100554.23
2023-02-11T14:20:42.584Z,100568.80
2023-02-11T14:25:57.350Z,100577.96
2023-02-11T14:31:04.072Z,100586.71
2023-02-11T14:36:37.181Z,100592.14
2023-02-11T14:41:47.853Z,100598.34
2023-02-11T14:46:56.077Z,100610.91
2023-02-11T14:52:14.641Z,100632.58
2023-02-11T14:57:21.017Z,100638.67
2023-02-11T15:02:32.241Z,100649.81
2023-02-11T15:07:36.331Z,100655.14
2023-02-11T15:12:40.591Z,100653.51
2023-02-11T15:17:45.018Z,100665.43
2023-02-11T15:22:54.330Z,100674.98
2023-02-11T15:27:59.122Z,100687.15
2023-02-11T15:33:06.342Z,100698.73
2023-02-11T15:38:13.403Z,100715.09
2023-02-11T15:43:17.213Z,100728.15
2023-02-11T15:48:27.372Z,100739.46
2023-02-11T15:53:38.513Z,100753.38
2023-02-11T15:58:45.386Z,100770.05
2023-02-11T16:03:51.134Z,100779.13
2023-02-11T16:09:22.736Z,100792.14
2023-02-11T16:14:28.574Z,100810.09
2023-02-11T16:19:34.544Z,100823.01
2023-02-11T16:24:39.933Z,100829.68
2023-02-11T16:29:47.941Z,100845.52
2023-02-11T16:34:55.518Z,100850.85
2023-02-11T16:39:59.378Z,100870.02
2023-02-11T16:45:05.131Z,100879.98
2023-02-11T16:50:22.174Z,100890.14
2023-02-11T16:55:25.583Z,100896.38
2023-02-11T17:00:35.561Z,100908.55
2023-02-11T17:05:54.609Z,100929.89
2023-02-11T17:11:03.730Z,100941.91
2023-02-11T17:16:18.251Z,100953.25
2023-02-11T17:27:10.041Z,100985.98
2023-02-11T17:32:25.758Z,100993.92
2023-02-11T17:37:36.746Z,101028.41
2023-02-11T17:42:40.893Z,101041.05
2023-02-11T17:47:54.647Z,101069.14
2023-02-11T17:53:00.060Z,101078.70
2023-02-11T17:58:12.817Z,101098.14
2023-02-11T18:03:18.449Z,101111.08
2023-02-11T18:08:21.935Z,101115.63
2023-02-11T18:13:30.156Z,101124.25
2023-02-11T18:18:35.427Z,101143.03
2023-02-11T18:23:39.013Z,101163.42
2023-02-11T18:28:46.177Z,101170.50
2023-02-11T18:34:01.336Z,101181.70
2023-02-11T18:39:08.705Z,101198.76
2023-02-11T18:44:26.596Z,101214.94
2023-02-11T18:49:30.244Z,101231.77
2023-02-11T18:54:33.850Z,101247.03
2023-02-11T18:59:45.851Z,101261.77
2023-02-11T19:04:49.438Z,101272.77
2023-02-11T19:09:52.945Z,101289.63
2023-02-11T19:15:00.296Z,101304.80
2023-02-11T19:20:08.625Z,101313.33
2023-02-11T19:25:16.747Z,101331.34
2023-02-11T19:30:20.639Z,101349.21
2023-02-11T19:35:25.571Z,101361.02
2023-02-11T19:40:31.664Z,101377.08
2023-02-11T19:45:45.701Z,101393.84
2023-02-11T19:57:05.188Z,101418.08
2023-02-11T20:02:18.336Z,101428.10
2023-02-11T20:07:25.603Z,101434.48
2023-02-11T20:12:30.794Z,101457.95
2023-02-11T20:17:35.393Z,101471.66
2023-02-11T20:28:48.237Z,101486.11
2023-02-11T20:34:32.415Z,101493.26
2023-02-11T20:39:57.113Z,101503.70
2023-02-11T20:45:04.778Z,101521.65
2023-02-11T20:50:31.081Z,101524.16
2023-02-11T20:55:39.155Z,101531.42
2023-02-11T21:00:42.772Z,101543.52
2023-02-11T21:05:46.024Z,101563.48
2023-02-11T21:10:49.592Z,101574.77
2023-02-11T21:15:57.464Z,101584.84
2023-02-11T21:21:01.561Z,101588.44
2023-02-11T21:26:05.205Z,101588.56
2023-02-11T21:31:08.833Z,101601.55
2023-02-11T21:36:12.436Z,101621.65
2023-02-11T21:41:16.952Z,101622.27
2023-02-11T21:46:21.336Z,101633.62
2023-02-11T21:51:26.604Z,101637.89
2023-02-11T21:56:31.891Z,101647.02
2023-02-11T22:01:36.393Z,101663.68
2023-02-11T22:06:39.907Z,101664.42
2023-02-11T22:11:45.635Z,101670.73
2023-02-11T22:17:06.511Z,101684.04
2023-02-11T22:22:20.044Z,101686.62
2023-02-11T22:27:24.059Z,101691.77
2023-02-11T22:32:28.851Z,101703.66
2023-02-11T22:37:34.725Z,101715.39
2023-02-11T22:42:40.694Z,101734.07
2023-02-11T22:47:44.001Z,101739.34
2023-02-11T22:52:47.547Z,101754.69
2023-02-11T22:57:55.795Z,101767.38
2023-02-11T23:03:01.516Z,101759.76
2023-02-11T23:08:06.039Z,101759.19
2023-02-11T23:13:11.294Z,101759.39
2023-02-11T23:18:15.674Z,101760.74
2023-02-11T23:23:19.877Z,101774.54
2023-02-11T23:28:23.131Z,101782.27
2023-02-11T23:33:27.138Z,101783.77
2023-02-11T23:38:30.468Z,101780.95
2023-02-11T23:43:34.465Z,101798.18
2023-02-11T23:48:38.323Z,101800.74
2023-02-11T23:53:41.943Z,101821.31
2023-02-11T23:58:48.827Z,101830.88
